Weather observations for the past three days for
Nantucket, Nantucket Memorial Airport
Metric (Imperial)
Date Time (edt) Wind (kph) Vis. (km) Weather Sky Cond. Temperature (ºC) Relative Humidity Wind Chill (°C) Heat Index (°C) Pressure Precipitation (cm)
Air Dwpt 6 hour altimeter (cm) sea level (mb) 1 hr 3 hr 6 hr
Max. Min.
31 20:53 SE 13 16.09 Partly Cloudy SCT100 17.8 13.9 78% 76.48 1019.4
31 19:53 SE 9 16.09 Partly Cloudy SCT120 16.7 13.9 22.2 16.7 84% 76.45 1019.2
31 18:53 E 9 16.09 Fair CLR 18.3 14.4 78% 76.48 1019.5
31 17:53 E 9 16.09 Fair CLR 18.9 13.9 73% 76.5 1019.7
31 16:53 E 11 16.09 Fair CLR 19.4 13.9 71% 76.48 1019.5
31 15:53 E 11 16.09 Fair CLR 20.6 13.9 66% 76.48 1019.7
31 14:53 E 13 16.09 Fair CLR 21.7 14.4 63% 76.5 1020.0
31 13:53 N 13 16.09 Fair CLR 21.7 13.9 22.8 19.4 61% 76.53 1020.1
31 12:53 NE 20 G 30 16.09 Fair CLR 22.2 15 64% 76.5 1020.0
31 11:53 NE 19 G 33 16.09 Fair CLR 22.2 15 64% 76.53 1020.3
31 10:53 NE 17 16.09 Fair CLR 21.7 16.1 71% 76.56 1020.5
31 09:53 N 22 16.09 Fair CLR 21.1 16.1 73% 76.53 1020.1
31 08:53 NE 20 16.09 Fair CLR 20.6 16.1 76% 76.45 1019.3
31 07:53 NE 20 16.09 Fair CLR 19.4 16.7 20.6 18.9 84% 76.45 1019.4
31 06:53 N 19 16.09 Fair CLR 18.9 16.7 87% 76.43 1018.8
31 05:53 N 17 16.09 Fair CLR 20 18.3 90% 76.35 1017.9
31 04:53 N 13 16.09 A Few Clouds FEW019 20 18.3 90% 76.33 1017.5
31 03:53 NW 7 16.09 Mostly Cloudy FEW043 BKN055 20 19.4 96% 76.3 1017.2
31 02:53 N 9 16.09 Overcast BKN008 BKN013 OVC038 20 19.4 96% 76.28 1016.8
31 01:53 N 13 16.09 Overcast BKN012 BKN065 OVC085 20.6 20 22.2 20.6 96% 76.28 1017.0 0.13 1.73
31 00:53 NW 11 2.82 Heavy Rain Fog/Mist FEW017 BKN028 OVC042 20.6 20 96% 76.28 1017.0 1.47
30 23:53 W 26 8.05 Rain Fog/Mist SCT026 BKN034 OVC075 21.1 19.4 90% 76.35 1017.8 0.13
30 22:53 W 22 16.09 Overcast BKN031 BKN038 OVC100 22.2 18.3 79% 76.33 1017.6
30 21:53 SW 22 16.09 Overcast OVC033 21.7 18.9 84% 76.35 1017.8
30 20:53 SW 19 16.09 Overcast OVC036 21.7 18.9 84% 76.35 1018.0
30 19:53 SW 19 16.09 Mostly Cloudy FEW050 FEW060 BKN120 21.7 18.3 25 21.7 81% 76.33 1017.7
30 18:53 SW 15 16.09 Fair CLR 21.7 18.9 84% 76.35 1017.8
30 17:53 SW 22 16.09 Fair CLR 22.2 18.3 79% 76.38 1018.2
30 16:53 SW 22 16.09 Fair CLR 22.8 18.3 76% 76.4 1018.6
30 15:53 SW 20 16.09 Fair CLR 23.3 18.3 74% 76.43 1018.8
30 14:53 W 24 16.09 Fair CLR 23.9 16.7 64% 25 76.48 1019.5
30 13:53 W 28 G 41 16.09 Fair CLR 25 16.7 25.6 20 60% 26 76.5 1019.8
30 12:53 W 30 16.09 Fair CLR 24.4 17.2 64% 25 76.5 1020.0
30 11:53 W 22 16.09 Fair CLR 24.4 17.8 67% 25 76.56 1020.5
30 10:53 W 26 16.09 Fair CLR 23.3 18.3 74% 76.58 1021.0
30 09:53 W 22 16.09 Fair CLR 23.3 17.8 71% 76.63 1021.7
30 08:53 W 22 16.09 Fair CLR 21.7 16.7 73% 76.66 1021.9
30 07:53 W 15 16.09 Fair CLR 20 17.2 20 17.2 84% 76.63 1021.8
30 06:53 W 9 16.09 Fair CLR 18.9 16.7 87% 76.63 1021.7
30 05:53 W 11 16.09 Fair CLR 17.8 16.1 90% 76.63 1021.8
29 23:53 SW 7 16.09 Fair CLR 17.2 16.1 93% 76.68 1022.2
29 22:53 S 9 16.09 Fair CLR 17.2 15.6 90% 76.68 1022.1
29 21:53 S 6 16.09 Fair CLR 16.1 14.4 90% 76.68 1022.4
29 20:53 SE 7 16.09 Fair CLR 16.7 14.4 86% 76.68 1022.2
29 19:53 E 7 16.09 Fair CLR 17.8 14.4 23.3 17.8 81% 76.61 1021.3
29 18:53 E 6 16.09 Fair CLR 18.9 14.4 75% 76.61 1021.3
29 17:53 E 9 16.09 Fair CLR 20 13.3 65% 76.63 1021.5
29 16:53 NE 9 16.09 A Few Clouds FEW050 22.2 12.2 53% 76.66 1021.9
29 15:53 NE 15 16.09 Partly Cloudy SCT050 22.8 13.3 55% 76.63 1021.7
29 14:53 NE 13 16.09 Fair CLR 22.8 13.3 55% 76.66 1022.1
29 13:53 NE 17 G 28 16.09 Fair CLR 23.3 13.9 23.9 20.6 56% 76.66 1022.0
29 12:53 N 24 16.09 Fair CLR 23.3 14.4 57% 76.66 1021.9
29 11:53 N 28 16.09 Fair CLR 22.8 13.9 57% 76.66 1022.0
29 10:53 NE 28 16.09 Fair CLR 22.8 15 62% 76.66 1021.9
29 09:53 NE 26 16.09 Fair CLR 22.2 15 64% 76.61 1021.4
29 08:53 NE 26 G 44 16.09 Fair CLR 21.7 16.7 73% 76.58 1020.8
29 07:53 N 28 G 39 16.09 Fair CLR 20.6 17.2 22.2 20.6 81% 76.53 1020.2
29 06:53 N 26 16.09 Fair CLR 20.6 16.7 78% 76.5 1019.8
29 05:53 N 28 16.09 Fair CLR 20.6 16.7 78% 76.43 1019.0
29 04:53 N 22 16.09 Fair CLR 21.1 16.7 76% 76.4 1018.5
29 03:53 N 26 G 41 16.09 Fair CLR 21.7 18.3 81% 76.35 1017.9
29 02:53 N 19 G 31 16.09 A Few Clouds FEW095 22.2 18.3 79% 76.33 1017.5
29 01:53 NW 15 16.09 Fair CLR 22.2 20 22.2 21.7 87% 76.28 1017.0
29 00:53 NW 11 16.09 A Few Clouds FEW090 21.7 21.1 96% 76.28 1016.8
28 23:53 W 17 16.09 Fair CLR 22.2 21.1 94% 76.25 1016.4
28 22:53 W 19 16.09 A Few Clouds FEW050 22.2 21.7 97% 76.23 1016.1
28 21:53 W 19 16.09 Fair CLR 22.2 21.7 97% 76.2 1015.8
Date Time (edt) Wind (kph) Vis. (km) Weather Sky Cond. Air Dwpt Max. Min. Relative Humidity Wind Chill (°C) Heat Index (°C) altimeter (cm) sea level (mb) 1 hr 3 hr 6 hr
6 hour
Temperature (ºC) Pressure Precipitation (cm)